Terminal Aerodrome Forecast
Issued by NWS

Home | Current Version | Previous Version | Text Only | Print | Product List | Glossary On
Versions: 1 2 3 4 5 6 7 8 9 10 11 12 13 14 15 16 17 18 19 20 21 22 23 24
525
FTUS44 KOHX 130520
TAFCKV
TAF
KCKV 130520Z 1306/1406 23003KT P6SM SKC
     FM131500 22016G26KT P6SM SKC
     FM140100 27010KT P6SM SKC=

USA.gov is the U.S. government's official web portal to all federal, state and local government web resources and services.